sensor_id;sensor_type;location;lat;lon;timestamp;P1;durP1;ratioP1;P2;durP2;ratioP2
1296;SDS011;641;48.492;9.184;2023-12-07T00:00:32;21.30;;;11.83;;
1296;SDS011;641;48.492;9.184;2023-12-07T00:02:58;20.10;;;11.30;;
1296;SDS011;641;48.492;9.184;2023-12-07T00:05:24;23.33;;;12.70;;
1296;SDS011;641;48.492;9.184;2023-12-07T00:07:50;22.03;;;13.23;;
1296;SDS011;641;48.492;9.184;2023-12-07T00:10:16;23.83;;;12.80;;
1296;SDS011;641;48.492;9.184;2023-12-07T00:12:41;22.30;;;12.83;;
1296;SDS011;641;48.492;9.184;2023-12-07T00:15:07;24.47;;;11.57;;
1296;SDS011;641;48.492;9.184;2023-12-07T00:17:33;23.70;;;11.80;;
1296;SDS011;641;48.492;9.184;2023-12-07T00:19:58;22.03;;;12.13;;
1296;SDS011;641;48.492;9.184;2023-12-07T00:22:24;20.20;;;11.37;;
1296;SDS011;641;48.492;9.184;2023-12-07T00:24:51;19.53;;;10.50;;
1296;SDS011;641;48.492;9.184;2023-12-07T00:27:17;18.60;;;9.97;;
1296;SDS011;641;48.492;9.184;2023-12-07T00:29:42;17.73;;;10.90;;
1296;SDS011;641;48.492;9.184;2023-12-07T00:32:08;21.53;;;10.20;;
1296;SDS011;641;48.492;9.184;2023-12-07T00:34:33;18.07;;;9.77;;
1296;SDS011;641;48.492;9.184;2023-12-07T00:36:59;16.87;;;9.80;;
1296;SDS011;641;48.492;9.184;2023-12-07T00:39:24;17.60;;;8.93;;
1296;SDS011;641;48.492;9.184;2023-12-07T00:41:50;18.07;;;9.10;;
1296;SDS011;641;48.492;9.184;2023-12-07T00:44:15;19.27;;;9.40;;
1296;SDS011;641;48.492;9.184;2023-12-07T00:46:41;16.67;;;9.70;;
1296;SDS011;641;48.492;9.184;2023-12-07T00:49:07;18.60;;;11.50;;
1296;SDS011;641;48.492;9.184;2023-12-07T00:51:32;19.93;;;11.63;;
1296;SDS011;641;48.492;9.184;2023-12-07T00:53:58;23.87;;;12.43;;
1296;SDS011;641;48.492;9.184;2023-12-07T00:56:23;19.23;;;10.93;;
1296;SDS011;641;48.492;9.184;2023-12-07T00:58:49;20.17;;;10.80;;
1296;SDS011;641;48.492;9.184;2023-12-07T01:01:15;19.77;;;12.10;;
1296;SDS011;641;48.492;9.184;2023-12-07T01:03:41;23.40;;;12.60;;
1296;SDS011;641;48.492;9.184;2023-12-07T01:06:07;21.03;;;11.17;;
1296;SDS011;641;48.492;9.184;2023-12-07T01:08:33;19.93;;;11.13;;
1296;SDS011;641;48.492;9.184;2023-12-07T01:10:58;19.03;;;11.07;;
1296;SDS011;641;48.492;9.184;2023-12-07T01:13:24;20.77;;;11.20;;
1296;SDS011;641;48.492;9.184;2023-12-07T01:15:49;22.37;;;11.50;;
1296;SDS011;641;48.492;9.184;2023-12-07T01:18:15;19.57;;;11.40;;
1296;SDS011;641;48.492;9.184;2023-12-07T01:20:41;26.70;;;13.00;;
1296;SDS011;641;48.492;9.184;2023-12-07T01:23:07;21.60;;;11.33;;
1296;SDS011;641;48.492;9.184;2023-12-07T01:25:35;19.50;;;11.57;;
1296;SDS011;641;48.492;9.184;2023-12-07T01:28:01;22.43;;;11.90;;
1296;SDS011;641;48.492;9.184;2023-12-07T01:30:26;18.73;;;11.67;;
1296;SDS011;641;48.492;9.184;2023-12-07T01:32:52;20.00;;;11.13;;
1296;SDS011;641;48.492;9.184;2023-12-07T01:35:18;16.50;;;9.60;;
1296;SDS011;641;48.492;9.184;2023-12-07T01:37:43;18.47;;;10.00;;
1296;SDS011;641;48.492;9.184;2023-12-07T01:40:09;18.33;;;9.77;;
1296;SDS011;641;48.492;9.184;2023-12-07T01:42:36;16.83;;;8.80;;
1296;SDS011;641;48.492;9.184;2023-12-07T01:45:02;17.17;;;9.13;;
1296;SDS011;641;48.492;9.184;2023-12-07T01:47:29;16.73;;;8.90;;
1296;SDS011;641;48.492;9.184;2023-12-07T01:49:55;16.57;;;8.70;;
1296;SDS011;641;48.492;9.184;2023-12-07T01:52:21;15.50;;;8.40;;
1296;SDS011;641;48.492;9.184;2023-12-07T01:54:49;15.37;;;7.63;;
1296;SDS011;641;48.492;9.184;2023-12-07T01:57:14;16.20;;;7.10;;
1296;SDS011;641;48.492;9.184;2023-12-07T01:59:40;16.50;;;6.73;;
1296;SDS011;641;48.492;9.184;2023-12-07T02:02:06;20.70;;;9.83;;
1296;SDS011;641;48.492;9.184;2023-12-07T02:04:32;19.57;;;10.77;;
1296;SDS011;641;48.492;9.184;2023-12-07T02:06:58;24.63;;;10.33;;
1296;SDS011;641;48.492;9.184;2023-12-07T02:09:26;17.97;;;8.47;;
1296;SDS011;641;48.492;9.184;2023-12-07T02:11:52;20.43;;;9.67;;
1296;SDS011;641;48.492;9.184;2023-12-07T02:14:17;18.93;;;9.20;;
1296;SDS011;641;48.492;9.184;2023-12-07T02:17:08;18.93;;;9.47;;
1296;SDS011;641;48.492;9.184;2023-12-07T02:22:25;17.43;;;7.90;;
1296;SDS011;641;48.492;9.184;2023-12-07T02:25:05;17.10;;;9.30;;
1296;SDS011;641;48.492;9.184;2023-12-07T02:27:40;17.73;;;8.20;;
1296;SDS011;641;48.492;9.184;2023-12-07T02:30:07;14.20;;;8.10;;
1296;SDS011;641;48.492;9.184;2023-12-07T02:32:41;16.90;;;8.23;;
1296;SDS011;641;48.492;9.184;2023-12-07T02:35:09;18.50;;;9.77;;
1296;SDS011;641;48.492;9.184;2023-12-07T02:37:40;17.30;;;9.87;;
1296;SDS011;641;48.492;9.184;2023-12-07T02:40:09;19.80;;;10.13;;
1296;SDS011;641;48.492;9.184;2023-12-07T02:42:37;19.70;;;10.30;;
1296;SDS011;641;48.492;9.184;2023-12-07T02:45:05;19.40;;;10.67;;
1296;SDS011;641;48.492;9.184;2023-12-07T02:47:31;21.50;;;10.43;;
1296;SDS011;641;48.492;9.184;2023-12-07T02:49:56;20.57;;;10.70;;
1296;SDS011;641;48.492;9.184;2023-12-07T02:52:22;23.57;;;10.77;;
1296;SDS011;641;48.492;9.184;2023-12-07T02:54:48;19.40;;;9.83;;
1296;SDS011;641;48.492;9.184;2023-12-07T02:57:13;22.70;;;9.60;;
1296;SDS011;641;48.492;9.184;2023-12-07T02:59:39;18.20;;;10.40;;
1296;SDS011;641;48.492;9.184;2023-12-07T03:02:05;27.20;;;10.20;;
1296;SDS011;641;48.492;9.184;2023-12-07T03:04:31;22.00;;;11.50;;
1296;SDS011;641;48.492;9.184;2023-12-07T03:06:57;22.60;;;11.67;;
1296;SDS011;641;48.492;9.184;2023-12-07T03:09:23;19.60;;;11.67;;
1296;SDS011;641;48.492;9.184;2023-12-07T03:11:48;20.43;;;10.27;;
1296;SDS011;641;48.492;9.184;2023-12-07T03:14:15;21.97;;;11.90;;
1296;SDS011;641;48.492;9.184;2023-12-07T03:16:40;16.63;;;9.27;;
1296;SDS011;641;48.492;9.184;2023-12-07T03:19:06;21.40;;;10.40;;
1296;SDS011;641;48.492;9.184;2023-12-07T03:21:31;22.57;;;11.53;;
1296;SDS011;641;48.492;9.184;2023-12-07T03:23:57;20.57;;;11.13;;
1296;SDS011;641;48.492;9.184;2023-12-07T03:26:22;18.87;;;10.27;;
1296;SDS011;641;48.492;9.184;2023-12-07T03:28:48;16.97;;;9.50;;
1296;SDS011;641;48.492;9.184;2023-12-07T03:31:13;17.77;;;10.20;;
1296;SDS011;641;48.492;9.184;2023-12-07T03:33:41;24.80;;;11.03;;
1296;SDS011;641;48.492;9.184;2023-12-07T03:36:10;20.33;;;10.53;;
1296;SDS011;641;48.492;9.184;2023-12-07T03:38:36;24.00;;;12.03;;
1296;SDS011;641;48.492;9.184;2023-12-07T03:41:01;20.03;;;10.80;;
1296;SDS011;641;48.492;9.184;2023-12-07T03:43:27;19.00;;;9.80;;
1296;SDS011;641;48.492;9.184;2023-12-07T03:45:52;20.20;;;10.07;;
1296;SDS011;641;48.492;9.184;2023-12-07T03:48:18;18.90;;;9.23;;
1296;SDS011;641;48.492;9.184;2023-12-07T03:50:44;17.53;;;9.40;;
1296;SDS011;641;48.492;9.184;2023-12-07T03:53:09;19.90;;;9.27;;
1296;SDS011;641;48.492;9.184;2023-12-07T03:55:35;16.93;;;7.60;;
1296;SDS011;641;48.492;9.184;2023-12-07T03:58:01;17.33;;;8.43;;
1296;SDS011;641;48.492;9.184;2023-12-07T04:00:27;18.60;;;8.23;;
1296;SDS011;641;48.492;9.184;2023-12-07T04:02:53;15.90;;;8.13;;
1296;SDS011;641;48.492;9.184;2023-12-07T04:05:18;17.50;;;8.47;;
1296;SDS011;641;48.492;9.184;2023-12-07T04:07:44;16.37;;;7.90;;
1296;SDS011;641;48.492;9.184;2023-12-07T04:10:09;15.87;;;8.90;;
1296;SDS011;641;48.492;9.184;2023-12-07T04:12:35;16.23;;;8.63;;
1296;SDS011;641;48.492;9.184;2023-12-07T04:15:01;19.50;;;9.10;;
1296;SDS011;641;48.492;9.184;2023-12-07T04:17:26;16.03;;;8.37;;
1296;SDS011;641;48.492;9.184;2023-12-07T04:19:52;16.10;;;8.37;;
1296;SDS011;641;48.492;9.184;2023-12-07T04:22:17;17.80;;;8.13;;
1296;SDS011;641;48.492;9.184;2023-12-07T04:24:43;15.37;;;7.17;;
1296;SDS011;641;48.492;9.184;2023-12-07T04:27:10;15.60;;;7.50;;
1296;SDS011;641;48.492;9.184;2023-12-07T04:29:36;16.27;;;7.07;;
1296;SDS011;641;48.492;9.184;2023-12-07T04:32:01;18.40;;;9.40;;
1296;SDS011;641;48.492;9.184;2023-12-07T04:34:27;15.90;;;8.37;;
1296;SDS011;641;48.492;9.184;2023-12-07T04:36:53;14.13;;;7.13;;
1296;SDS011;641;48.492;9.184;2023-12-07T04:39:18;16.70;;;7.67;;
1296;SDS011;641;48.492;9.184;2023-12-07T04:41:44;16.10;;;7.30;;
1296;SDS011;641;48.492;9.184;2023-12-07T04:44:09;16.00;;;7.67;;
1296;SDS011;641;48.492;9.184;2023-12-07T04:46:35;14.87;;;7.20;;
1296;SDS011;641;48.492;9.184;2023-12-07T04:49:01;17.03;;;7.80;;
1296;SDS011;641;48.492;9.184;2023-12-07T04:51:26;17.23;;;8.80;;
1296;SDS011;641;48.492;9.184;2023-12-07T04:53:52;19.30;;;8.60;;
1296;SDS011;641;48.492;9.184;2023-12-07T04:56:17;16.27;;;8.93;;
1296;SDS011;641;48.492;9.184;2023-12-07T04:58:43;17.33;;;8.77;;
1296;SDS011;641;48.492;9.184;2023-12-07T05:01:08;16.80;;;8.00;;
1296;SDS011;641;48.492;9.184;2023-12-07T05:03:34;14.53;;;6.97;;
1296;SDS011;641;48.492;9.184;2023-12-07T05:06:00;16.70;;;8.60;;
1296;SDS011;641;48.492;9.184;2023-12-07T05:08:25;21.10;;;7.53;;
1296;SDS011;641;48.492;9.184;2023-12-07T05:10:51;17.57;;;8.10;;
1296;SDS011;641;48.492;9.184;2023-12-07T05:13:17;17.73;;;8.68;;
1296;SDS011;641;48.492;9.184;2023-12-07T05:15:43;43.17;;;21.77;;
1296;SDS011;641;48.492;9.184;2023-12-07T05:18:08;25.87;;;14.20;;
1296;SDS011;641;48.492;9.184;2023-12-07T05:20:34;18.83;;;9.20;;
1296;SDS011;641;48.492;9.184;2023-12-07T05:23:01;16.50;;;7.20;;
1296;SDS011;641;48.492;9.184;2023-12-07T05:25:26;16.27;;;7.77;;
1296;SDS011;641;48.492;9.184;2023-12-07T05:27:52;15.13;;;7.30;;
1296;SDS011;641;48.492;9.184;2023-12-07T05:30:17;13.87;;;6.50;;
1296;SDS011;641;48.492;9.184;2023-12-07T05:32:43;12.53;;;6.47;;
1296;SDS011;641;48.492;9.184;2023-12-07T05:35:08;16.93;;;7.37;;
1296;SDS011;641;48.492;9.184;2023-12-07T05:37:34;13.93;;;6.43;;
1296;SDS011;641;48.492;9.184;2023-12-07T05:39:59;12.43;;;6.00;;
1296;SDS011;641;48.492;9.184;2023-12-07T05:42:25;12.73;;;6.23;;
1296;SDS011;641;48.492;9.184;2023-12-07T05:44:51;13.10;;;6.23;;
1296;SDS011;641;48.492;9.184;2023-12-07T05:47:16;11.47;;;5.87;;
1296;SDS011;641;48.492;9.184;2023-12-07T05:49:42;14.63;;;6.13;;
1296;SDS011;641;48.492;9.184;2023-12-07T05:52:08;15.90;;;7.40;;
1296;SDS011;641;48.492;9.184;2023-12-07T05:54:33;14.20;;;7.30;;
1296;SDS011;641;48.492;9.184;2023-12-07T05:56:59;13.77;;;7.20;;
1296;SDS011;641;48.492;9.184;2023-12-07T05:59:24;13.90;;;6.70;;
1296;SDS011;641;48.492;9.184;2023-12-07T06:01:53;15.87;;;9.10;;
1296;SDS011;641;48.492;9.184;2023-12-07T06:04:19;16.50;;;7.50;;
1296;SDS011;641;48.492;9.184;2023-12-07T06:06:44;16.07;;;7.60;;
1296;SDS011;641;48.492;9.184;2023-12-07T06:09:10;15.17;;;7.63;;
1296;SDS011;641;48.492;9.184;2023-12-07T06:11:36;14.73;;;7.90;;
1296;SDS011;641;48.492;9.184;2023-12-07T06:14:02;17.80;;;9.10;;
1296;SDS011;641;48.492;9.184;2023-12-07T06:16:27;17.23;;;8.90;;
1296;SDS011;641;48.492;9.184;2023-12-07T06:18:53;17.60;;;8.50;;
1296;SDS011;641;48.492;9.184;2023-12-07T06:21:18;16.90;;;9.33;;
1296;SDS011;641;48.492;9.184;2023-12-07T06:23:45;18.38;;;9.25;;
1296;SDS011;641;48.492;9.184;2023-12-07T06:26:11;17.05;;;9.60;;
1296;SDS011;641;48.492;9.184;2023-12-07T06:28:37;17.67;;;9.30;;
1296;SDS011;641;48.492;9.184;2023-12-07T06:31:06;19.90;;;9.40;;
1296;SDS011;641;48.492;9.184;2023-12-07T06:33:32;17.73;;;7.25;;
1296;SDS011;641;48.492;9.184;2023-12-07T06:35:58;15.67;;;7.87;;
1296;SDS011;641;48.492;9.184;2023-12-07T06:38:23;21.70;;;7.10;;
1296;SDS011;641;48.492;9.184;2023-12-07T06:40:49;14.37;;;7.23;;
1296;SDS011;641;48.492;9.184;2023-12-07T06:43:15;13.07;;;6.10;;
1296;SDS011;641;48.492;9.184;2023-12-07T06:45:40;11.13;;;5.23;;
1296;SDS011;641;48.492;9.184;2023-12-07T06:48:06;14.07;;;6.50;;
1296;SDS011;641;48.492;9.184;2023-12-07T06:50:31;14.40;;;5.40;;
1296;SDS011;641;48.492;9.184;2023-12-07T06:52:57;14.67;;;7.60;;
1296;SDS011;641;48.492;9.184;2023-12-07T06:55:22;13.97;;;6.23;;
1296;SDS011;641;48.492;9.184;2023-12-07T06:57:48;12.80;;;6.20;;
1296;SDS011;641;48.492;9.184;2023-12-07T07:00:14;14.60;;;6.27;;
1296;SDS011;641;48.492;9.184;2023-12-07T07:02:39;15.40;;;6.97;;
1296;SDS011;641;48.492;9.184;2023-12-07T07:05:05;18.37;;;7.97;;
1296;SDS011;641;48.492;9.184;2023-12-07T07:07:31;17.67;;;7.70;;
1296;SDS011;641;48.492;9.184;2023-12-07T07:09:57;15.87;;;6.67;;
1296;SDS011;641;48.492;9.184;2023-12-07T07:12:22;25.97;;;9.77;;
1296;SDS011;641;48.492;9.184;2023-12-07T07:14:48;15.00;;;8.43;;
1296;SDS011;641;48.492;9.184;2023-12-07T07:17:14;15.40;;;7.50;;
1296;SDS011;641;48.492;9.184;2023-12-07T07:19:40;16.92;;;9.23;;
1296;SDS011;641;48.492;9.184;2023-12-07T07:22:06;21.38;;;9.95;;
1296;SDS011;641;48.492;9.184;2023-12-07T07:24:34;20.95;;;9.60;;
1296;SDS011;641;48.492;9.184;2023-12-07T07:26:59;19.30;;;8.40;;
1296;SDS011;641;48.492;9.184;2023-12-07T07:29:25;18.53;;;8.63;;
1296;SDS011;641;48.492;9.184;2023-12-07T07:31:50;19.43;;;8.57;;
1296;SDS011;641;48.492;9.184;2023-12-07T07:34:16;20.67;;;10.60;;
1296;SDS011;641;48.492;9.184;2023-12-07T07:36:41;21.67;;;11.17;;
1296;SDS011;641;48.492;9.184;2023-12-07T07:39:07;20.50;;;10.80;;
1296;SDS011;641;48.492;9.184;2023-12-07T07:41:33;21.63;;;10.17;;
1296;SDS011;641;48.492;9.184;2023-12-07T07:43:59;22.75;;;10.75;;
1296;SDS011;641;48.492;9.184;2023-12-07T07:46:25;19.63;;;10.70;;
1296;SDS011;641;48.492;9.184;2023-12-07T07:48:50;24.67;;;11.13;;
1296;SDS011;641;48.492;9.184;2023-12-07T07:51:16;20.50;;;11.50;;
1296;SDS011;641;48.492;9.184;2023-12-07T07:53:41;21.63;;;10.00;;
1296;SDS011;641;48.492;9.184;2023-12-07T07:56:07;21.97;;;11.67;;
1296;SDS011;641;48.492;9.184;2023-12-07T07:58:33;23.53;;;11.30;;
1296;SDS011;641;48.492;9.184;2023-12-07T08:00:59;19.77;;;10.00;;
1296;SDS011;641;48.492;9.184;2023-12-07T08:03:25;21.60;;;11.37;;
1296;SDS011;641;48.492;9.184;2023-12-07T08:05:50;23.73;;;11.67;;
1296;SDS011;641;48.492;9.184;2023-12-07T08:08:18;25.93;;;10.60;;
1296;SDS011;641;48.492;9.184;2023-12-07T08:10:44;22.70;;;11.00;;
1296;SDS011;641;48.492;9.184;2023-12-07T08:13:09;20.43;;;10.83;;
1296;SDS011;641;48.492;9.184;2023-12-07T08:15:35;21.13;;;10.27;;
1296;SDS011;641;48.492;9.184;2023-12-07T08:18:00;23.90;;;10.60;;
1296;SDS011;641;48.492;9.184;2023-12-07T08:20:27;18.87;;;9.60;;
1296;SDS011;641;48.492;9.184;2023-12-07T08:22:52;18.23;;;10.63;;
1296;SDS011;641;48.492;9.184;2023-12-07T08:25:18;21.07;;;10.80;;
1296;SDS011;641;48.492;9.184;2023-12-07T08:27:44;22.03;;;10.17;;
1296;SDS011;641;48.492;9.184;2023-12-07T08:30:11;22.07;;;11.30;;
1296;SDS011;641;48.492;9.184;2023-12-07T08:32:37;21.80;;;11.30;;
1296;SDS011;641;48.492;9.184;2023-12-07T08:35:03;19.30;;;11.38;;
1296;SDS011;641;48.492;9.184;2023-12-07T08:37:31;20.10;;;12.27;;
1296;SDS011;641;48.492;9.184;2023-12-07T08:39:57;23.85;;;12.98;;
1296;SDS011;641;48.492;9.184;2023-12-07T08:42:23;23.30;;;12.70;;
1296;SDS011;641;48.492;9.184;2023-12-07T08:44:48;24.30;;;14.07;;
1296;SDS011;641;48.492;9.184;2023-12-07T08:47:14;26.43;;;15.27;;
1296;SDS011;641;48.492;9.184;2023-12-07T08:49:39;21.70;;;12.33;;
1296;SDS011;641;48.492;9.184;2023-12-07T08:52:05;21.63;;;12.10;;
1296;SDS011;641;48.492;9.184;2023-12-07T08:54:31;22.63;;;13.23;;
1296;SDS011;641;48.492;9.184;2023-12-07T08:56:57;26.80;;;13.00;;
1296;SDS011;641;48.492;9.184;2023-12-07T08:59:23;20.93;;;12.50;;
1296;SDS011;641;48.492;9.184;2023-12-07T09:01:48;24.33;;;11.53;;
1296;SDS011;641;48.492;9.184;2023-12-07T09:04:14;25.23;;;11.27;;
1296;SDS011;641;48.492;9.184;2023-12-07T09:06:40;19.07;;;10.70;;
1296;SDS011;641;48.492;9.184;2023-12-07T09:09:05;21.17;;;11.10;;
1296;SDS011;641;48.492;9.184;2023-12-07T09:11:31;23.63;;;10.33;;
1296;SDS011;641;48.492;9.184;2023-12-07T09:13:57;21.80;;;10.67;;
1296;SDS011;641;48.492;9.184;2023-12-07T09:16:23;19.70;;;11.83;;
1296;SDS011;641;48.492;9.184;2023-12-07T09:18:49;20.53;;;10.20;;
1296;SDS011;641;48.492;9.184;2023-12-07T09:21:15;20.40;;;11.03;;
1296;SDS011;641;48.492;9.184;2023-12-07T09:23:41;27.77;;;12.60;;
1296;SDS011;641;48.492;9.184;2023-12-07T09:26:06;23.30;;;12.83;;
1296;SDS011;641;48.492;9.184;2023-12-07T09:28:32;20.30;;;11.90;;
1296;SDS011;641;48.492;9.184;2023-12-07T09:30:58;29.23;;;12.00;;
1296;SDS011;641;48.492;9.184;2023-12-07T09:33:24;17.97;;;9.30;;
1296;SDS011;641;48.492;9.184;2023-12-07T09:35:49;17.90;;;9.70;;
1296;SDS011;641;48.492;9.184;2023-12-07T09:38:15;18.27;;;9.50;;
1296;SDS011;641;48.492;9.184;2023-12-07T09:40:41;22.77;;;11.40;;
1296;SDS011;641;48.492;9.184;2023-12-07T09:43:07;20.53;;;12.10;;
1296;SDS011;641;48.492;9.184;2023-12-07T09:45:33;21.23;;;10.73;;
1296;SDS011;641;48.492;9.184;2023-12-07T09:47:59;17.40;;;9.33;;
1296;SDS011;641;48.492;9.184;2023-12-07T09:50:25;17.40;;;9.53;;
1296;SDS011;641;48.492;9.184;2023-12-07T09:52:56;22.40;;;11.07;;
1296;SDS011;641;48.492;9.184;2023-12-07T09:55:22;20.00;;;10.10;;
1296;SDS011;641;48.492;9.184;2023-12-07T09:57:49;18.37;;;9.87;;
1296;SDS011;641;48.492;9.184;2023-12-07T10:00:16;17.60;;;9.87;;
1296;SDS011;641;48.492;9.184;2023-12-07T10:02:44;19.10;;;9.77;;
1296;SDS011;641;48.492;9.184;2023-12-07T10:05:10;21.17;;;11.70;;
1296;SDS011;641;48.492;9.184;2023-12-07T10:07:45;19.00;;;10.20;;
1296;SDS011;641;48.492;9.184;2023-12-07T10:10:15;18.80;;;10.40;;
1296;SDS011;641;48.492;9.184;2023-12-07T10:12:45;18.77;;;9.47;;
1296;SDS011;641;48.492;9.184;2023-12-07T10:15:13;19.13;;;10.47;;
1296;SDS011;641;48.492;9.184;2023-12-07T10:17:43;22.23;;;11.60;;
1296;SDS011;641;48.492;9.184;2023-12-07T10:20:13;19.07;;;10.70;;
1296;SDS011;641;48.492;9.184;2023-12-07T10:22:40;22.43;;;11.73;;
1296;SDS011;641;48.492;9.184;2023-12-07T10:25:06;21.63;;;10.97;;
1296;SDS011;641;48.492;9.184;2023-12-07T10:27:34;17.80;;;9.93;;
1296;SDS011;641;48.492;9.184;2023-12-07T10:30:00;20.77;;;10.67;;
1296;SDS011;641;48.492;9.184;2023-12-07T10:32:26;19.57;;;10.20;;
1296;SDS011;641;48.492;9.184;2023-12-07T10:34:52;17.80;;;9.27;;
1296;SDS011;641;48.492;9.184;2023-12-07T10:37:18;18.13;;;9.53;;
1296;SDS011;641;48.492;9.184;2023-12-07T10:39:44;20.10;;;9.27;;
1296;SDS011;641;48.492;9.184;2023-12-07T10:42:09;17.57;;;9.10;;
1296;SDS011;641;48.492;9.184;2023-12-07T10:44:40;19.50;;;9.40;;
1296;SDS011;641;48.492;9.184;2023-12-07T10:47:07;17.43;;;10.00;;
1296;SDS011;641;48.492;9.184;2023-12-07T10:49:35;16.60;;;9.63;;
1296;SDS011;641;48.492;9.184;2023-12-07T10:52:06;18.20;;;9.67;;
1296;SDS011;641;48.492;9.184;2023-12-07T10:54:44;21.47;;;10.50;;
1296;SDS011;641;48.492;9.184;2023-12-07T10:57:23;17.30;;;9.87;;
1296;SDS011;641;48.492;9.184;2023-12-07T10:59:50;21.10;;;10.90;;
1296;SDS011;641;48.492;9.184;2023-12-07T11:02:16;17.73;;;9.80;;
1296;SDS011;641;48.492;9.184;2023-12-07T11:04:43;18.20;;;10.37;;
1296;SDS011;641;48.492;9.184;2023-12-07T11:07:10;19.33;;;10.67;;
1296;SDS011;641;48.492;9.184;2023-12-07T11:09:44;20.37;;;11.00;;
1296;SDS011;641;48.492;9.184;2023-12-07T11:12:37;19.30;;;10.50;;
1296;SDS011;641;48.492;9.184;2023-12-07T11:15:12;17.93;;;9.60;;
1296;SDS011;641;48.492;9.184;2023-12-07T11:17:52;19.70;;;10.40;;
1296;SDS011;641;48.492;9.184;2023-12-07T11:20:20;17.40;;;9.10;;
1296;SDS011;641;48.492;9.184;2023-12-07T11:23:26;21.57;;;10.77;;
1296;SDS011;641;48.492;9.184;2023-12-07T11:25:52;21.23;;;11.43;;
1296;SDS011;641;48.492;9.184;2023-12-07T11:28:21;17.23;;;10.17;;
1296;SDS011;641;48.492;9.184;2023-12-07T11:31:03;17.93;;;10.30;;
1296;SDS011;641;48.492;9.184;2023-12-07T11:33:31;19.40;;;10.10;;
1296;SDS011;641;48.492;9.184;2023-12-07T11:38:29;22.00;;;9.83;;
1296;SDS011;641;48.492;9.184;2023-12-07T11:40:55;17.33;;;10.10;;
1296;SDS011;641;48.492;9.184;2023-12-07T11:46:03;19.60;;;9.07;;
1296;SDS011;641;48.492;9.184;2023-12-07T11:48:28;17.43;;;9.87;;
1296;SDS011;641;48.492;9.184;2023-12-07T11:50:58;9.90;;;4.10;;
1296;SDS011;641;48.492;9.184;2023-12-07T11:53:25;8.30;;;2.97;;
1296;SDS011;641;48.492;9.184;2023-12-07T11:55:55;7.00;;;2.40;;
1296;SDS011;641;48.492;9.184;2023-12-07T11:58:22;6.93;;;1.83;;
1296;SDS011;641;48.492;9.184;2023-12-07T12:00:50;7.10;;;2.20;;
1296;SDS011;641;48.492;9.184;2023-12-07T12:03:18;9.03;;;2.63;;
1296;SDS011;641;48.492;9.184;2023-12-07T12:05:44;7.43;;;2.27;;
1296;SDS011;641;48.492;9.184;2023-12-07T12:08:10;8.50;;;2.30;;
1296;SDS011;641;48.492;9.184;2023-12-07T12:10:36;7.83;;;2.50;;
1296;SDS011;641;48.492;9.184;2023-12-07T12:13:03;7.10;;;2.17;;
1296;SDS011;641;48.492;9.184;2023-12-07T12:15:29;6.90;;;2.10;;
1296;SDS011;641;48.492;9.184;2023-12-07T12:17:58;6.73;;;2.27;;
1296;SDS011;641;48.492;9.184;2023-12-07T12:20:25;7.50;;;1.90;;
1296;SDS011;641;48.492;9.184;2023-12-07T12:22:51;8.30;;;2.27;;
1296;SDS011;641;48.492;9.184;2023-12-07T12:25:23;7.50;;;2.00;;
1296;SDS011;641;48.492;9.184;2023-12-07T12:27:54;7.27;;;2.20;;
1296;SDS011;641;48.492;9.184;2023-12-07T12:30:21;7.80;;;1.80;;
1296;SDS011;641;48.492;9.184;2023-12-07T12:32:50;6.40;;;1.83;;
1296;SDS011;641;48.492;9.184;2023-12-07T12:35:19;7.27;;;2.00;;
1296;SDS011;641;48.492;9.184;2023-12-07T12:37:45;8.70;;;1.93;;
1296;SDS011;641;48.492;9.184;2023-12-07T12:40:16;6.90;;;1.97;;
1296;SDS011;641;48.492;9.184;2023-12-07T12:42:46;7.37;;;2.03;;
1296;SDS011;641;48.492;9.184;2023-12-07T12:45:13;10.30;;;2.47;;
1296;SDS011;641;48.492;9.184;2023-12-07T12:47:42;8.30;;;1.83;;
1296;SDS011;641;48.492;9.184;2023-12-07T12:50:09;7.27;;;1.80;;
1296;SDS011;641;48.492;9.184;2023-12-07T12:52:36;6.20;;;1.60;;
1296;SDS011;641;48.492;9.184;2023-12-07T12:55:06;8.37;;;2.00;;
1296;SDS011;641;48.492;9.184;2023-12-07T12:57:33;6.93;;;1.80;;
1296;SDS011;641;48.492;9.184;2023-12-07T13:00:01;6.70;;;1.57;;
1296;SDS011;641;48.492;9.184;2023-12-07T13:02:27;8.50;;;2.60;;
1296;SDS011;641;48.492;9.184;2023-12-07T13:04:53;6.23;;;1.50;;
1296;SDS011;641;48.492;9.184;2023-12-07T13:07:20;6.73;;;1.63;;
1296;SDS011;641;48.492;9.184;2023-12-07T13:09:46;6.50;;;1.40;;
1296;SDS011;641;48.492;9.184;2023-12-07T13:12:12;7.00;;;2.00;;
1296;SDS011;641;48.492;9.184;2023-12-07T13:14:38;5.93;;;1.63;;
1296;SDS011;641;48.492;9.184;2023-12-07T13:17:04;7.97;;;1.73;;
1296;SDS011;641;48.492;9.184;2023-12-07T13:19:32;9.40;;;1.80;;
1296;SDS011;641;48.492;9.184;2023-12-07T13:21:58;6.23;;;1.73;;
1296;SDS011;641;48.492;9.184;2023-12-07T13:24:23;6.47;;;1.70;;
1296;SDS011;641;48.492;9.184;2023-12-07T13:26:49;7.13;;;2.27;;
1296;SDS011;641;48.492;9.184;2023-12-07T13:29:14;6.90;;;2.00;;
1296;SDS011;641;48.492;9.184;2023-12-07T13:31:40;7.17;;;2.27;;
1296;SDS011;641;48.492;9.184;2023-12-07T13:34:05;7.00;;;2.27;;
1296;SDS011;641;48.492;9.184;2023-12-07T13:36:31;6.00;;;1.50;;
1296;SDS011;641;48.492;9.184;2023-12-07T13:38:58;6.63;;;1.73;;
1296;SDS011;641;48.492;9.184;2023-12-07T13:41:27;7.00;;;1.73;;
1296;SDS011;641;48.492;9.184;2023-12-07T13:43:53;8.10;;;2.00;;
1296;SDS011;641;48.492;9.184;2023-12-07T13:46:18;6.20;;;1.43;;
1296;SDS011;641;48.492;9.184;2023-12-07T13:48:44;6.87;;;1.93;;
1296;SDS011;641;48.492;9.184;2023-12-07T13:51:10;6.80;;;2.00;;
1296;SDS011;641;48.492;9.184;2023-12-07T13:53:36;7.17;;;1.97;;
1296;SDS011;641;48.492;9.184;2023-12-07T13:56:02;7.63;;;1.70;;
1296;SDS011;641;48.492;9.184;2023-12-07T13:58:29;6.70;;;1.70;;
1296;SDS011;641;48.492;9.184;2023-12-07T14:00:55;6.30;;;1.60;;
1296;SDS011;641;48.492;9.184;2023-12-07T14:03:21;6.97;;;1.90;;
1296;SDS011;641;48.492;9.184;2023-12-07T14:05:46;6.67;;;1.87;;
1296;SDS011;641;48.492;9.184;2023-12-07T14:08:12;7.10;;;2.07;;
1296;SDS011;641;48.492;9.184;2023-12-07T14:10:38;6.53;;;1.97;;
1296;SDS011;641;48.492;9.184;2023-12-07T14:13:04;10.23;;;2.13;;
1296;SDS011;641;48.492;9.184;2023-12-07T14:15:29;7.90;;;2.00;;
1296;SDS011;641;48.492;9.184;2023-12-07T14:17:57;7.47;;;1.93;;
1296;SDS011;641;48.492;9.184;2023-12-07T14:20:24;6.50;;;2.00;;
1296;SDS011;641;48.492;9.184;2023-12-07T14:22:52;7.17;;;1.90;;
1296;SDS011;641;48.492;9.184;2023-12-07T14:25:18;9.20;;;2.00;;
1296;SDS011;641;48.492;9.184;2023-12-07T14:27:44;8.53;;;1.90;;
1296;SDS011;641;48.492;9.184;2023-12-07T14:30:10;7.87;;;2.40;;
1296;SDS011;641;48.492;9.184;2023-12-07T14:32:36;6.60;;;1.90;;
1296;SDS011;641;48.492;9.184;2023-12-07T14:35:01;6.80;;;1.90;;
1296;SDS011;641;48.492;9.184;2023-12-07T14:37:27;7.03;;;2.23;;
1296;SDS011;641;48.492;9.184;2023-12-07T14:39:53;7.10;;;2.40;;
1296;SDS011;641;48.492;9.184;2023-12-07T14:42:19;6.90;;;2.00;;
1296;SDS011;641;48.492;9.184;2023-12-07T14:44:45;6.57;;;1.87;;
1296;SDS011;641;48.492;9.184;2023-12-07T14:47:10;7.97;;;2.53;;
1296;SDS011;641;48.492;9.184;2023-12-07T14:49:36;8.20;;;2.40;;
1296;SDS011;641;48.492;9.184;2023-12-07T14:52:01;7.20;;;2.67;;
1296;SDS011;641;48.492;9.184;2023-12-07T14:54:27;8.83;;;2.40;;
1296;SDS011;641;48.492;9.184;2023-12-07T14:56:53;8.97;;;2.97;;
1296;SDS011;641;48.492;9.184;2023-12-07T14:59:18;12.53;;;2.30;;
1296;SDS011;641;48.492;9.184;2023-12-07T15:01:45;8.77;;;2.80;;
1296;SDS011;641;48.492;9.184;2023-12-07T15:04:10;8.37;;;2.93;;
1296;SDS011;641;48.492;9.184;2023-12-07T15:06:36;8.10;;;3.37;;
1296;SDS011;641;48.492;9.184;2023-12-07T15:09:01;9.80;;;3.70;;
1296;SDS011;641;48.492;9.184;2023-12-07T15:11:32;9.73;;;3.67;;
1296;SDS011;641;48.492;9.184;2023-12-07T15:13:58;11.13;;;3.40;;
1296;SDS011;641;48.492;9.184;2023-12-07T15:16:24;9.60;;;3.20;;